.
WxDataArchive / Data Records for 2011-03-29
2011-03-28 March 2011 2011-03-30

Data Records for Tuesday, 29 March 2011

Time	Temp	Chill	HIndex	Humid	Dewpt	 Wind 	HiWind	WindDir	Rain 	Barom 
-----	----	-----	------	-----	-----	------	------	-------	-----	----- 
00:00	26.1	26.1	26.1	49	9.6	0	0	---	0.00	30.254 
00:05	26.0	26.0	26.0	50	9.9	0	0	---	0.00	30.254 
00:10	26.0	26.0	26.0	50	9.9	0	0	---	0.00	30.254 
00:15	25.8	25.8	25.8	51	10.2	0	0	---	0.00	30.255 
00:20	25.8	25.8	25.8	51	10.2	0	0	---	0.00	30.255 
00:25	25.8	25.8	25.8	52	10.6	0	0	---	0.00	30.255 
00:30	25.8	25.8	25.8	51	10.2	0	0	---	0.00	30.258 
00:35	25.8	25.8	25.8	52	10.6	0	0	---	0.00	30.258 
00:40	25.8	25.8	25.8	52	10.6	0	0	---	0.00	30.258 
00:45	25.8	25.8	25.8	53	11.1	0	0	---	0.00	30.263 
00:50	25.8	25.8	25.8	53	11.1	0	0	---	0.00	30.263 
00:55	25.8	25.8	25.8	53	11.1	0	0	---	0.00	30.263 
01:00	25.8	25.8	25.8	53	11.1	0	0	---	0.00	30.264 
01:05	25.8	25.8	25.8	53	11.1	0	0	---	0.00	30.264 
01:10	25.7	25.7	25.7	53	11.0	0	0	---	0.00	30.264 
01:15	25.6	25.6	25.6	53	10.9	0	0	---	0.00	30.262 
01:20	25.3	25.3	25.3	53	10.6	0	0	---	0.00	30.262 
01:25	25.0	25.0	25.0	53	10.3	0	0	---	0.00	30.262 
01:30	24.8	24.8	24.8	54	10.5	0	0	---	0.00	30.266 
01:35	24.8	24.8	24.8	54	10.5	0	0	---	0.00	30.266 
01:40	24.7	24.7	24.7	55	10.9	0	0	---	0.00	30.266 
01:45	24.7	24.7	24.7	55	10.9	0	0	---	0.00	30.273 
01:50	24.5	24.5	24.5	55	10.7	0	0	---	0.00	30.273 
01:55	24.4	24.4	24.4	55	10.6	0	0	---	0.00	30.273 
02:00	24.4	24.4	24.4	56	11.0	0	0	---	0.00	30.273 
02:05	24.4	24.4	24.4	56	11.0	0	0	---	0.00	30.273 
02:10	24.4	24.4	24.4	56	11.0	0	1	0	0.00	30.273 
02:15	24.4	24.4	24.4	56	11.0	0	0	---	0.00	30.272 
02:20	24.4	24.4	24.4	56	11.0	0	0	---	0.00	30.272 
02:25	24.5	24.5	24.5	56	11.1	0	1	0	0.00	30.272 
02:30	24.5	24.5	24.5	56	11.1	0	0	---	0.00	30.280 
02:35	24.5	24.5	24.5	56	11.1	0	0	---	0.00	30.280 
02:40	24.5	24.5	24.5	56	11.1	0	0	---	0.00	30.280 
02:45	24.4	24.4	24.4	56	11.0	0	0	---	0.00	30.280 
02:50	24.4	24.4	24.4	57	11.4	0	0	---	0.00	30.280 
02:55	24.4	24.4	24.4	57	11.4	0	0	---	0.00	30.280 
03:00	24.4	24.4	24.4	58	11.8	0	0	---	0.00	30.275 
03:05	24.4	24.4	24.4	58	11.8	0	0	---	0.00	30.275 
03:10	24.5	24.5	24.5	58	11.9	0	0	---	0.00	30.275 
03:15	24.5	24.5	24.5	58	11.9	0	0	---	0.00	30.272 
03:20	24.5	24.5	24.5	58	11.9	0	0	---	0.00	30.272 
03:25	24.7	24.7	24.7	58	12.1	0	0	---	0.00	30.272 
03:30	24.7	24.7	24.7	58	12.1	0	0	---	0.00	30.275 
03:35	24.7	24.7	24.7	58	12.1	0	0	---	0.00	30.275 
03:40	24.7	24.7	24.7	58	12.1	0	0	---	0.00	30.275 
03:45	24.7	24.7	24.7	58	12.1	0	0	---	0.00	30.275 
03:50	24.7	24.7	24.7	58	12.1	0	0	---	0.00	30.275 
03:55	24.7	24.7	24.7	58	12.1	0	0	---	0.00	30.275 
04:00	24.7	24.7	24.7	58	12.1	0	0	---	0.00	30.277 
04:05	24.5	24.5	24.5	59	12.3	0	0	---	0.00	30.277 
04:10	24.4	24.4	24.4	59	12.2	0	0	---	0.00	30.277 
04:15	24.4	24.4	24.4	60	12.5	0	0	---	0.00	30.283 
04:20	24.2	24.2	24.2	60	12.3	0	0	---	0.00	30.283 
04:25	24.2	24.2	24.2	60	12.3	0	0	---	0.00	30.283 
04:30	24.2	24.2	24.2	60	12.3	0	0	---	0.00	30.288 
04:35	24.2	24.2	24.2	61	12.7	0	0	---	0.00	30.288 
04:40	24.5	24.5	24.5	62	13.4	0	0	---	0.00	30.288 
04:45	24.7	24.7	24.7	62	13.6	0	1	0	0.00	30.274 
04:50	25.0	25.0	25.0	61	13.5	0	0	---	0.00	30.274 
04:55	25.1	25.1	25.1	61	13.6	0	2	22	0.00	30.274 
05:00	25.4	25.4	25.4	61	13.9	0	0	---	0.00	30.272 
05:05	25.6	25.6	25.6	61	14.0	0	1	22	0.00	30.272 
05:10	25.7	25.7	25.7	60	13.8	0	0	---	0.00	30.272 
05:15	25.8	25.8	25.8	60	13.9	0	1	22	0.00	30.278 
05:20	26.0	26.0	26.0	60	14.0	0	2	22	0.00	30.278 
05:25	26.0	26.0	26.0	60	14.0	0	1	22	0.00	30.278 
05:30	26.1	26.1	26.1	60	14.1	0	1	22	0.00	30.289 
05:35	26.1	26.1	26.1	60	14.1	0	1	22	0.00	30.289 
05:40	26.3	26.3	26.3	60	14.3	0	1	22	0.00	30.289 
05:45	26.3	26.3	26.3	60	14.3	0	0	---	0.00	30.292 
05:50	26.3	26.3	26.3	60	14.3	0	1	22	0.00	30.292 
05:55	26.3	26.3	26.3	60	14.3	0	1	22	0.00	30.292 
06:00	26.1	26.1	26.1	60	14.1	0	1	22	0.00	30.288 
06:05	26.1	26.1	26.1	60	14.1	0	1	22	0.00	30.288 
06:10	26.0	26.0	26.0	61	14.4	0	1	22	0.00	30.288 
06:15	26.0	26.0	26.0	61	14.4	1	2	22	0.00	30.284 
06:20	26.0	26.0	26.0	62	14.8	0	2	22	0.00	30.284 
06:25	26.0	26.0	26.0	62	14.8	0	2	22	0.00	30.284 
06:30	26.0	26.0	26.0	62	14.8	0	2	45	0.00	30.281 
06:35	26.0	26.0	26.0	62	14.8	0	1	45	0.00	30.281 
06:40	26.0	26.0	26.0	62	14.8	0	1	45	0.00	30.281 
06:45	25.8	25.8	25.8	62	14.6	1	2	45	0.00	30.290 
06:50	25.7	25.7	25.7	62	14.5	0	2	45	0.00	30.290 
06:55	25.7	25.7	25.7	62	14.5	0	2	45	0.00	30.290 
07:00	25.6	25.6	25.6	62	14.4	0	1	45	0.00	30.297 
07:05	25.4	25.4	25.4	63	14.6	0	0	---	0.00	30.297 
07:10	25.3	25.3	25.3	63	14.5	0	1	45	0.00	30.297 
07:15	25.1	25.1	25.1	64	14.7	0	0	---	0.00	30.306 
07:20	25.1	25.1	25.1	64	14.7	0	0	---	0.00	30.306 
07:25	25.1	25.1	25.1	64	14.7	0	1	45	0.00	30.306 
07:30	25.1	25.1	25.1	64	14.7	0	0	---	0.00	30.315 
07:35	25.1	25.1	25.1	65	15.0	0	0	---	0.00	30.315 
07:40	25.1	25.1	25.1	64	14.7	0	0	---	0.00	30.315 
07:45	25.1	25.1	25.1	65	15.0	0	0	---	0.00	30.325 
07:50	25.3	25.3	25.3	65	15.2	0	0	---	0.00	30.325 
07:55	25.4	25.4	25.4	65	15.3	0	0	---	0.00	30.325 
08:00	25.7	25.7	25.7	64	15.2	0	2	45	0.00	30.328 
08:05	25.8	25.8	25.8	63	15.0	0	1	45	0.00	30.328 
08:10	26.1	26.1	26.1	62	14.9	0	1	45	0.00	30.328 
08:15	26.4	26.4	26.4	62	15.2	0	1	45	0.00	30.345 
08:20	26.6	26.6	26.6	62	15.4	0	1	45	0.00	30.345 
08:25	26.7	26.7	26.7	61	15.1	0	2	45	0.00	30.345 
08:30	27.0	27.0	27.0	62	15.7	0	1	45	0.00	30.350 
08:35	27.2	27.2	27.2	62	15.9	0	1	45	0.00	30.350 
08:40	27.5	27.5	27.5	61	15.8	0	1	45	0.00	30.350 
08:45	27.6	27.6	27.6	61	15.9	0	1	45	0.00	30.348 
08:50	27.8	27.8	27.8	61	16.1	0	1	45	0.00	30.348 
08:55	27.9	27.9	27.9	61	16.2	0	0	---	0.00	30.348 
09:00	28.2	28.2	28.2	61	16.5	0	1	45	0.00	30.355 
09:05	28.4	28.4	28.4	61	16.7	0	2	45	0.00	30.355 
09:10	28.7	28.7	28.7	59	16.2	0	2	45	0.00	30.355 
09:15	28.8	28.8	28.8	59	16.3	0	1	45	0.00	30.360 
09:20	29.0	29.0	29.0	61	17.3	0	1	45	0.00	30.360 
09:25	29.1	29.1	29.1	59	16.6	1	3	45	0.00	30.360 
09:30	29.3	29.3	29.3	59	16.8	1	3	45	0.00	30.354 
09:35	29.4	29.4	29.4	58	16.5	1	3	45	0.00	30.354 
09:40	29.7	29.7	29.7	58	16.8	1	3	45	0.00	30.354 
09:45	29.8	29.8	29.8	56	16.0	1	3	68	0.00	30.353 
09:50	30.0	30.0	30.0	57	16.6	1	2	68	0.00	30.353 
09:55	30.3	30.3	30.3	56	16.5	1	3	68	0.00	30.353 
10:00	30.4	30.4	30.4	56	16.6	1	3	68	0.00	30.355 
10:05	30.7	30.7	30.7	56	16.9	0	2	68	0.00	30.355 
10:10	31.0	31.0	31.0	57	17.6	1	3	68	0.00	30.355 
10:15	31.2	31.2	31.2	54	16.5	1	4	68	0.00	30.361 
10:20	31.3	31.3	31.3	55	17.0	1	3	90	0.00	30.361 
10:25	31.8	31.8	31.8	54	17.1	1	4	90	0.00	30.361 
10:30	32.1	32.1	32.1	54	17.4	1	4	112	0.00	30.361 
10:35	32.5	32.5	32.5	52	16.9	2	5	112	0.00	30.361 
10:40	32.8	32.8	32.8	51	16.7	1	3	90	0.00	30.361 
10:45	33.2	33.2	33.2	51	17.1	1	3	90	0.00	30.358 
10:50	33.2	33.2	33.2	49	16.1	3	5	112	0.00	30.358 
10:55	33.4	33.4	33.4	51	17.2	2	5	68	0.00	30.358 
11:00	33.5	33.5	33.5	49	16.4	2	5	90	0.00	30.357 
11:05	34.0	34.0	34.0	47	15.9	2	5	112	0.00	30.357 
11:10	34.3	34.3	34.3	50	17.6	2	6	90	0.00	30.357 
11:15	34.6	34.6	34.6	47	16.5	2	6	112	0.00	30.359 
11:20	35.0	31.5	35.0	45	15.8	4	7	112	0.00	30.359 
11:25	35.0	35.0	35.0	46	16.3	3	7	90	0.00	30.359 
11:30	35.5	35.5	35.5	44	15.8	2	7	90	0.00	30.360 
11:35	35.9	35.9	35.9	44	16.1	3	6	90	0.00	30.360 
11:40	36.5	36.5	36.5	44	16.7	2	5	112	0.00	30.360 
11:45	36.8	36.8	36.8	43	16.4	3	6	90	0.00	30.358 
11:50	37.3	37.3	37.3	47	18.9	2	6	112	0.00	30.358 
11:55	37.8	37.8	37.8	41	16.2	2	5	90	0.00	30.358 
12:00	37.8	37.8	37.8	41	16.2	1	4	90	0.00	30.360 
12:05	37.9	37.9	37.9	40	15.8	1	3	90	0.00	30.360 
12:10	37.8	37.8	37.8	39	15.1	2	6	90	0.00	30.360 
12:15	37.8	37.8	37.8	39	15.1	2	6	90	0.00	30.357 
12:20	37.9	37.9	37.9	39	15.2	3	10	90	0.00	30.357 
12:25	37.5	37.5	37.5	40	15.4	3	5	112	0.00	30.357 
12:30	37.8	37.8	37.8	40	15.7	0	3	112	0.00	30.342 
12:35	38.3	38.3	38.3	39	15.5	1	6	135	0.00	30.342 
12:40	38.8	38.8	38.8	40	16.6	1	6	90	0.00	30.342 
12:45	39.2	39.2	39.2	39	16.3	1	4	112	0.00	30.340 
12:50	39.8	39.8	39.8	37	15.7	1	5	45	0.00	30.340 
12:55	39.8	39.8	39.8	38	16.3	3	7	90	0.00	30.340 
13:00	39.5	36.7	39.5	36	14.8	4	9	112	0.00	30.334 
13:05	39.6	39.6	39.6	37	15.5	2	6	90	0.00	30.334 
13:10	39.8	39.8	39.8	36	15.0	1	3	90	0.00	30.334 
13:15	40.1	40.1	40.1	38	16.6	3	9	112	0.00	30.333 
13:20	40.1	40.1	40.1	37	15.9	3	6	90	0.00	30.333 
13:25	40.5	40.5	40.5	38	16.9	1	4	292	0.00	30.333 
13:30	40.6	40.6	40.6	33	13.8	1	6	90	0.00	30.327 
13:35	40.6	40.6	40.6	31	12.4	3	7	112	0.00	30.327 
13:40	40.9	40.9	40.9	35	15.4	1	3	112	0.00	30.327 
13:45	41.3	41.3	41.3	33	14.4	1	4	112	0.00	30.323 
13:50	41.6	41.6	41.6	37	17.3	2	7	90	0.00	30.323 
13:55	41.5	41.5	41.5	33	14.6	3	6	90	0.00	30.323 
14:00	41.5	41.5	41.5	32	13.9	2	6	112	0.00	30.311 
14:05	41.9	41.9	41.9	36	16.9	2	5	112	0.00	30.311 
14:10	42.5	42.5	42.5	35	16.8	2	6	112	0.00	30.311 
14:15	42.6	42.6	42.6	32	14.8	1	4	45	0.00	30.310 
14:20	42.3	42.3	42.3	32	14.6	1	2	0	0.00	30.310 
14:25	42.3	42.3	42.3	30	13.1	1	6	68	0.00	30.310 
14:30	42.3	42.3	42.3	32	14.6	2	7	112	0.00	30.300 
14:35	42.2	42.2	42.2	32	14.5	2	5	112	0.00	30.300 
14:40	42.5	42.5	42.5	35	16.8	0	2	112	0.00	30.300 
14:45	42.8	42.8	42.8	35	17.1	3	6	112	0.00	30.291 
14:50	42.9	42.9	42.9	32	15.1	1	6	68	0.00	30.291 
14:55	43.2	43.2	43.2	33	16.1	1	6	112	0.00	30.291 
15:00	43.2	43.2	43.2	35	17.4	1	5	112	0.00	30.282 
15:05	43.2	43.2	43.2	30	13.9	2	5	90	0.00	30.282 
15:10	42.9	42.9	42.9	30	13.6	2	7	90	0.00	30.282 
15:15	42.8	42.8	42.8	30	13.5	2	4	112	0.00	30.274 
15:20	43.2	43.2	43.2	34	16.8	1	3	112	0.00	30.274 
15:25	43.8	43.8	43.8	32	15.9	1	3	112	0.00	30.274 
15:30	44.2	44.2	44.2	30	14.8	1	5	112	0.00	30.267 
15:35	43.8	43.8	43.8	31	15.2	2	6	68	0.00	30.267 
15:40	43.6	43.6	43.6	29	13.5	1	4	292	0.00	30.267 
15:45	44.1	44.1	44.1	33	16.9	1	7	338	0.00	30.257 
15:50	44.1	44.1	44.1	32	16.1	2	7	112	0.00	30.257 
15:55	44.3	44.3	44.3	33	17.0	1	5	112	0.00	30.257 
16:00	44.3	44.3	44.3	31	15.6	0	4	90	0.00	30.257 
16:05	44.1	44.1	44.1	28	13.1	1	4	90	0.00	30.257 
16:10	43.9	43.9	43.9	27	12.1	1	6	90	0.00	30.257 
16:15	44.1	44.1	44.1	28	13.1	2	7	112	0.00	30.253 
16:20	44.2	44.2	44.2	29	14.0	1	3	112	0.00	30.253 
16:25	44.8	44.8	44.8	28	13.7	1	5	135	0.00	30.253 
16:30	45.2	45.2	45.2	28	14.1	0	2	338	0.00	30.244 
16:35	45.2	45.2	45.2	28	14.1	1	6	90	0.00	30.244 
16:40	45.2	45.2	45.2	29	14.9	0	4	45	0.00	30.244 
16:45	45.4	45.4	45.4	30	15.8	0	2	68	0.00	30.249 
16:50	45.1	45.1	45.1	27	13.1	0	3	68	0.00	30.249 
16:55	45.1	45.1	45.1	27	13.1	0	4	68	0.00	30.249 
17:00	44.9	44.9	44.9	28	13.8	0	2	68	0.00	30.248 
17:05	45.1	45.1	45.1	29	14.8	0	3	68	0.00	30.248 
17:10	45.1	45.1	45.1	31	16.3	1	3	68	0.00	30.248 
17:15	44.6	44.6	44.6	28	13.5	2	5	112	0.00	30.240 
17:20	44.3	44.3	44.3	27	12.5	2	7	90	0.00	30.240 
17:25	44.3	44.3	44.3	28	13.3	1	3	90	0.00	30.240 
17:30	44.5	44.5	44.5	30	15.0	2	6	90	0.00	30.240 
17:35	44.5	44.5	44.5	28	13.4	2	6	90	0.00	30.240 
17:40	44.5	44.5	44.5	27	12.6	0	2	90	0.00	30.240 
17:45	44.3	44.3	44.3	27	12.5	3	7	112	0.00	30.241 
17:50	44.2	44.2	44.2	27	12.4	3	9	112	0.00	30.241 
17:55	44.1	44.1	44.1	28	13.1	1	3	112	0.00	30.241 
18:00	44.2	44.2	44.2	28	13.2	2	5	112	0.00	30.238 
18:05	44.1	44.1	44.1	27	12.3	2	4	90	0.00	30.238 
18:10	44.2	44.2	44.2	27	12.4	2	7	90	0.00	30.238 
18:15	44.2	44.2	44.2	28	13.2	2	6	90	0.00	30.234 
18:20	44.1	44.1	44.1	27	12.3	1	5	90	0.00	30.234 
18:25	43.9	43.9	43.9	27	12.1	2	5	112	0.00	30.234 
18:30	43.9	43.9	43.9	28	12.9	1	7	112	0.00	30.228 
18:35	43.8	43.8	43.8	28	12.8	3	7	112	0.00	30.228 
18:40	43.6	43.6	43.6	28	12.7	2	5	90	0.00	30.228 
18:45	43.6	43.6	43.6	28	12.7	1	4	90	0.00	30.229 
18:50	43.6	43.6	43.6	28	12.7	0	2	90	0.00	30.229 
18:55	43.5	43.5	43.5	28	12.6	1	6	90	0.00	30.229 
19:00	43.5	43.5	43.5	28	12.6	2	9	112	0.00	30.228 
19:05	43.3	43.3	43.3	28	12.4	1	4	112	0.00	30.228 
19:10	43.1	43.1	43.1	28	12.2	2	6	112	0.00	30.228 
19:15	42.9	42.9	42.9	28	12.1	2	4	90	0.00	30.228 
19:20	42.9	42.9	42.9	28	12.1	2	5	112	0.00	30.228 
19:25	42.8	42.8	42.8	27	11.2	1	4	90	0.00	30.228 
19:30	42.6	42.6	42.6	29	12.6	1	3	90	0.00	30.231 
19:35	42.5	42.5	42.5	29	12.5	1	3	90	0.00	30.231 
19:40	42.3	42.3	42.3	29	12.3	1	4	90	0.00	30.231 
19:45	42.2	42.2	42.2	29	12.2	1	3	90	0.00	30.233 
19:50	42.1	42.1	42.1	30	12.9	1	3	90	0.00	30.233 
19:55	41.9	41.9	41.9	30	12.8	0	2	90	0.00	30.233 
20:00	41.6	41.6	41.6	31	13.2	0	1	90	0.00	30.234 
20:05	41.3	41.3	41.3	31	13.0	0	2	90	0.00	30.234 
20:10	41.1	41.1	41.1	31	12.8	0	2	90	0.00	30.234 
20:15	40.8	40.8	40.8	32	13.3	0	1	90	0.00	30.230 
20:20	40.6	40.6	40.6	32	13.1	0	3	90	0.00	30.230 
20:25	40.3	40.3	40.3	34	14.2	0	1	90	0.00	30.230 
20:30	40.1	40.1	40.1	34	14.0	0	1	90	0.00	30.232 
20:35	39.8	39.8	39.8	35	14.4	0	1	90	0.00	30.232 
20:40	39.3	39.3	39.3	35	14.0	0	1	90	0.00	30.232 
20:45	39.2	39.2	39.2	36	14.5	0	1	90	0.00	30.236 
20:50	39.1	39.1	39.1	36	14.4	0	0	---	0.00	30.236 
20:55	38.9	38.9	38.9	36	14.2	0	0	---	0.00	30.236 
21:00	38.6	38.6	38.6	37	14.6	0	0	---	0.00	30.235 
21:05	38.5	38.5	38.5	37	14.5	0	1	90	0.00	30.235 
21:10	38.3	38.3	38.3	37	14.3	0	1	90	0.00	30.235 
21:15	38.3	38.3	38.3	38	14.9	0	1	90	0.00	30.233 
21:20	38.2	38.2	38.2	38	14.9	0	0	---	0.00	30.233 
21:25	38.2	38.2	38.2	38	14.9	0	0	---	0.00	30.233 
21:30	38.0	38.0	38.0	38	14.7	0	1	90	0.00	30.232 
21:35	38.0	38.0	38.0	39	15.3	0	1	90	0.00	30.232 
21:40	37.9	37.9	37.9	39	15.2	0	0	---	0.00	30.232 
21:45	37.8	37.8	37.8	39	15.1	0	0	---	0.00	30.235 
21:50	37.6	37.6	37.6	40	15.5	0	0	---	0.00	30.235 
21:55	37.3	37.3	37.3	40	15.2	0	0	---	0.00	30.235 
22:00	37.0	37.0	37.0	40	14.9	0	0	---	0.00	30.241 
22:05	36.8	36.8	36.8	41	15.3	0	0	---	0.00	30.241 
22:10	36.3	36.3	36.3	41	14.9	0	0	---	0.00	30.241 
22:15	35.9	35.9	35.9	41	14.5	0	0	---	0.00	30.239 
22:20	35.6	35.6	35.6	42	14.8	0	0	---	0.00	30.239 
22:25	35.2	35.2	35.2	43	15.0	0	0	---	0.00	30.239 
22:30	34.7	34.7	34.7	43	14.5	0	0	---	0.00	30.241 
22:35	34.4	34.4	34.4	44	14.8	0	0	---	0.00	30.241 
22:40	34.1	34.1	34.1	44	14.5	0	0	---	0.00	30.241 
22:45	33.7	33.7	33.7	45	14.6	0	0	---	0.00	30.235 
22:50	33.4	33.4	33.4	46	14.9	0	0	---	0.00	30.235 
22:55	33.1	33.1	33.1	46	14.6	0	0	---	0.00	30.235 
23:00	32.7	32.7	32.7	48	15.2	0	0	---	0.00	30.231 
23:05	32.4	32.4	32.4	49	15.4	0	0	---	0.00	30.231 
23:10	32.1	32.1	32.1	50	15.6	0	0	---	0.00	30.231 
23:15	31.9	31.9	31.9	51	15.9	0	4	90	0.00	30.225 
23:20	32.9	32.9	32.9	48	15.4	2	7	90	0.00	30.225 
23:25	34.3	34.3	34.3	46	15.7	3	6	90	0.00	30.225 
23:30	34.9	34.9	34.9	47	16.7	1	4	90	0.00	30.221 
23:35	34.9	34.9	34.9	48	17.2	1	4	90	0.00	30.221 
23:40	34.6	34.6	34.6	49	17.4	1	4	112	0.00	30.221 
23:45	34.4	34.4	34.4	50	17.7	1	4	90	0.00	30.220 
23:50	34.3	34.3	34.3	51	18.1	1	4	90	0.00	30.220 
23:55	34.1	34.1	34.1	51	17.9	2	4	68	0.00	30.220 

CoCoRaHS
IN-AL-39
A2 Web Hosting
Creative Commons License
GoDaddy
search engine by freefind advanced

loaded 2018-11-21 01:52:55 • last modified 2010-11-18 10:43:29
Privacy PolicyDisclaimer
• wx.awcolley.com is powered by PmWiki v.2002016 •
• all content (unless otherwise noted) © 2018 A W Colley